Time;durP1;ratioP1;P1;durP2;ratioP2;P2;SDS_P1;SDS_P2;PMS_P1;PMS_P2;Temp;Humidity;BMP_temperature;BMP_pressure;BME280_temperature;BME280_humidity;BME280_pressure;Samples;Min_cycle;Max_cycle;Signal;HPM_P1;HPM_P2
2022/01/26 00:00:54;;;;;;;31.02;9.65;;;;;;;;;;5025245;28;20041;-92
2022/01/26 00:06:19;;;;;;;32.88;9.50;;;;;;;;;;5041151;28;20049;-88
2022/01/26 00:08:48;;;;;;;35.75;9.55;;;;;;;;;;5006392;28;20060;-88
2022/01/26 00:11:16;;;;;;;34.20;11.07;;;;;;;;;;5019923;28;20130;-88
2022/01/26 00:13:43;;;;;;;33.45;10.48;;;;;;;;;;5034658;28;20091;-89
2022/01/26 00:16:27;;;;;;;27.52;9.10;;;;;;;;;;5036436;28;20133;-88
2022/01/26 00:19:00;;;;;;;32.53;9.77;;;;;;;;;;5037992;28;20037;-88
2022/01/26 00:21:39;;;;;;;36.03;10.10;;;;;;;;;;5040175;28;20037;-88
2022/01/26 00:29:34;;;;;;;35.30;10.20;;;;;;;;;;5003922;28;20614;-89
2022/01/26 00:43:24;;;;;;;35.33;11.30;;;;;;;;;;5036324;28;20156;-89
2022/01/26 00:45:56;;;;;;;34.15;9.98;;;;;;;;;;5008805;28;20689;-90
2022/01/26 00:48:27;;;;;;;31.98;9.27;;;;;;;;;;5011872;28;20083;-89
2022/01/26 00:50:55;;;;;;;31.17;9.55;;;;;;;;;;5022586;28;20087;-89
2022/01/26 00:53:29;;;;;;;35.90;11.05;;;;;;;;;;5023798;28;20037;-89
2022/01/26 00:55:57;;;;;;;33.15;9.85;;;;;;;;;;5020641;28;20041;-89
2022/01/26 00:58:25;;;;;;;29.38;9.27;;;;;;;;;;5034602;28;20126;-89
2022/01/26 01:00:54;;;;;;;33.72;9.10;;;;;;;;;;5012408;28;20598;-89
2022/01/26 01:03:23;;;;;;;27.85;8.45;;;;;;;;;;5007672;28;20124;-92
2022/01/26 01:06:00;;;;;;;31.50;9.30;;;;;;;;;;5008248;28;20158;-91
2022/01/26 01:08:27;;;;;;;31.25;8.25;;;;;;;;;;5030525;28;20053;-93
2022/01/26 01:10:56;;;;;;;27.10;8.80;;;;;;;;;;5015011;28;20164;-93
2022/01/26 01:13:40;;;;;;;25.50;9.32;;;;;;;;;;5032133;28;20041;-93
2022/01/26 01:16:18;;;;;;;24.67;8.15;;;;;;;;;;5008357;28;20040;-93
2022/01/26 01:32:01;;;;;;;28.45;8.35;;;;;;;;;;5050673;28;20048;-93
2022/01/26 01:34:39;;;;;;;25.05;7.57;;;;;;;;;;5039396;28;20045;-93
2022/01/26 01:37:11;;;;;;;30.08;8.30;;;;;;;;;;5037027;28;20036;-93
2022/01/26 01:39:39;;;;;;;24.42;7.53;;;;;;;;;;5028453;28;20051;-94
2022/01/26 01:42:08;;;;;;;25.92;7.78;;;;;;;;;;5054487;28;20049;-94
2022/01/26 01:44:36;;;;;;;27.23;8.93;;;;;;;;;;5052602;28;20044;-94
2022/01/26 01:47:07;;;;;;;31.58;9.07;;;;;;;;;;5034662;28;20037;-94
2022/01/26 01:49:36;;;;;;;28.42;8.48;;;;;;;;;;5048615;28;20097;-94
2022/01/26 01:52:12;;;;;;;28.92;9.18;;;;;;;;;;5030881;28;20045;-93
2022/01/26 01:54:41;;;;;;;32.10;9.05;;;;;;;;;;5014431;28;20052;-92
2022/01/26 01:57:09;;;;;;;28.20;9.02;;;;;;;;;;5028071;28;20107;-92
2022/01/26 01:59:37;;;;;;;28.50;8.50;;;;;;;;;;5014905;28;20519;-93
2022/01/26 02:02:05;;;;;;;29.38;8.95;;;;;;;;;;5000353;28;20052;-93
2022/01/26 02:04:33;;;;;;;24.30;7.70;;;;;;;;;;5016991;28;20140;-92
2022/01/26 02:07:01;;;;;;;27.73;8.32;;;;;;;;;;5018239;28;20055;-93
2022/01/26 02:09:29;;;;;;;31.73;9.07;;;;;;;;;;5040553;28;20049;-91
2022/01/26 02:11:58;;;;;;;24.70;7.57;;;;;;;;;;5038754;28;20136;-91
2022/01/26 02:14:32;;;;;;;29.35;8.30;;;;;;;;;;5026035;28;20052;-91
2022/01/26 02:17:14;;;;;;;25.05;8.70;;;;;;;;;;5046900;28;20037;-91
2022/01/26 02:55:53;;;;;;;26.45;8.40;;;;;;;;;;4967464;28;20199;-88
2022/01/26 03:03:41;;;;;;;29.02;9.13;;;;;;;;;;4969431;28;20045;-93
2022/01/26 03:06:14;;;;;;;29.52;9.57;;;;;;;;;;4957011;28;20064;-93
2022/01/26 03:08:53;;;;;;;36.72;9.82;;;;;;;;;;4955894;28;20943;-92
2022/01/26 03:11:26;;;;;;;32.85;9.30;;;;;;;;;;4955224;28;21119;-93
2022/01/26 03:14:02;;;;;;;30.27;8.60;;;;;;;;;;4997158;28;20179;-93
2022/01/26 03:16:38;;;;;;;31.27;9.68;;;;;;;;;;5011672;28;20033;-93
2022/01/26 03:30:05;;;;;;;32.50;9.75;;;;;;;;;;5045542;28;21147;-93
2022/01/26 03:35:04;;;;;;;33.58;9.75;;;;;;;;;;5034684;28;20119;-93
2022/01/26 03:37:38;;;;;;;35.15;10.68;;;;;;;;;;5020945;28;20358;-93
2022/01/26 03:40:13;;;;;;;30.85;9.75;;;;;;;;;;5033114;28;20383;-93
2022/01/26 03:42:41;;;;;;;37.70;10.65;;;;;;;;;;5037197;28;20037;-93
2022/01/26 03:45:09;;;;;;;39.60;10.95;;;;;;;;;;5001400;28;20041;-93
2022/01/26 03:47:37;;;;;;;37.55;10.88;;;;;;;;;;5006664;28;20051;-93
2022/01/26 03:50:05;;;;;;;35.38;11.35;;;;;;;;;;5007570;28;20052;-93
2022/01/26 03:52:33;;;;;;;39.15;10.90;;;;;;;;;;5004165;28;20041;-93
2022/01/26 03:55:01;;;;;;;42.58;11.23;;;;;;;;;;5034696;28;20931;-94
2022/01/26 03:57:29;;;;;;;36.00;11.02;;;;;;;;;;5035034;28;20052;-93
2022/01/26 03:59:57;;;;;;;37.38;11.07;;;;;;;;;;5007003;28;20049;-94
2022/01/26 04:02:25;;;;;;;41.45;11.73;;;;;;;;;;5039616;28;20484;-94
2022/01/26 04:04:58;;;;;;;39.35;11.20;;;;;;;;;;5037820;28;20036;-94
2022/01/26 04:07:27;;;;;;;37.97;11.85;;;;;;;;;;5053910;28;20029;-94
2022/01/26 04:10:03;;;;;;;40.92;10.85;;;;;;;;;;5050843;28;20021;-94
2022/01/26 04:12:33;;;;;;;33.40;11.15;;;;;;;;;;5047429;28;20041;-94
2022/01/26 04:15:09;;;;;;;40.88;11.13;;;;;;;;;;5031039;28;20055;-93
2022/01/26 04:17:37;;;;;;;35.90;11.18;;;;;;;;;;5015484;28;20048;-93
2022/01/26 04:20:05;;;;;;;42.50;11.45;;;;;;;;;;5048663;28;20064;-94
2022/01/26 04:22:47;;;;;;;42.10;11.38;;;;;;;;;;5037726;28;20072;-93
2022/01/26 04:25:20;;;;;;;31.90;10.45;;;;;;;;;;5043667;28;20069;-94
2022/01/26 04:27:50;;;;;;;39.00;10.65;;;;;;;;;;5016084;28;20124;-93
2022/01/26 04:30:19;;;;;;;40.00;12.35;;;;;;;;;;5012972;28;20085;-92
2022/01/26 04:32:47;;;;;;;36.63;11.02;;;;;;;;;;5048362;22;20145;-83
2022/01/26 04:35:15;;;;;;;36.47;11.52;;;;;;;;;;4988730;28;20047;-82
2022/01/26 04:40:15;;;;;;;42.10;12.05;;;;;;;;;;4994911;28;20041;-83
2022/01/26 04:42:51;;;;;;;37.67;11.88;;;;;;;;;;4993546;28;20053;-82
2022/01/26 04:45:19;;;;;;;36.20;10.35;;;;;;;;;;4992114;28;20038;-82
2022/01/26 04:47:47;;;;;;;36.10;11.10;;;;;;;;;;4995052;28;20165;-83
2022/01/26 04:50:15;;;;;;;34.58;11.93;;;;;;;;;;4991033;28;20093;-82
2022/01/26 04:52:46;;;;;;;38.22;11.23;;;;;;;;;;5008223;28;20034;-82
2022/01/26 04:55:14;;;;;;;39.00;10.80;;;;;;;;;;5024403;28;20038;-83
2022/01/26 04:57:41;;;;;;;37.78;11.32;;;;;;;;;;5008388;28;20093;-82
2022/01/26 05:00:15;;;;;;;36.33;11.10;;;;;;;;;;4994804;28;20426;-82
2022/01/26 05:02:43;;;;;;;37.22;10.88;;;;;;;;;;4994700;28;20046;-82
2022/01/26 05:05:11;;;;;;;39.70;11.23;;;;;;;;;;4998071;28;20049;-82
2022/01/26 05:07:39;;;;;;;33.75;10.13;;;;;;;;;;4998785;28;20065;-82
2022/01/26 05:10:07;;;;;;;31.38;9.95;;;;;;;;;;5000339;28;20038;-83
2022/01/26 05:12:35;;;;;;;42.00;11.38;;;;;;;;;;5002081;28;20041;-82
2022/01/26 05:15:03;;;;;;;30.92;8.70;;;;;;;;;;4994002;28;20053;-82
2022/01/26 05:17:31;;;;;;;35.72;10.13;;;;;;;;;;5008303;28;20395;-82
2022/01/26 05:20:00;;;;;;;34.03;10.45;;;;;;;;;;4991229;28;20141;-82
2022/01/26 05:22:31;;;;;;;37.25;10.32;;;;;;;;;;4993804;28;20046;-82
2022/01/26 05:24:59;;;;;;;38.70;10.48;;;;;;;;;;4992101;28;20065;-83
2022/01/26 05:27:27;;;;;;;37.75;10.65;;;;;;;;;;4990986;28;20042;-82
2022/01/26 05:29:55;;;;;;;31.55;9.55;;;;;;;;;;5025633;28;20046;-82
2022/01/26 05:32:23;;;;;;;28.85;9.70;;;;;;;;;;4991897;28;20532;-82
2022/01/26 05:34:51;;;;;;;34.55;9.68;;;;;;;;;;4988717;28;20050;-82
2022/01/26 05:37:19;;;;;;;25.95;8.38;;;;;;;;;;4988734;28;20066;-82
2022/01/26 05:39:47;;;;;;;29.25;9.80;;;;;;;;;;4989572;28;20065;-82
2022/01/26 05:42:16;;;;;;;31.63;9.48;;;;;;;;;;5007686;28;20043;-82
2022/01/26 05:44:45;;;;;;;34.55;8.90;;;;;;;;;;4994115;28;20411;-82
2022/01/26 05:47:17;;;;;;;31.52;9.43;;;;;;;;;;4992564;28;20041;-82
2022/01/26 05:49:45;;;;;;;33.08;9.75;;;;;;;;;;5006141;28;20125;-82
2022/01/26 05:52:13;;;;;;;27.98;8.02;;;;;;;;;;4992412;28;20062;-82
2022/01/26 05:54:41;;;;;;;32.58;9.18;;;;;;;;;;4992528;28;20106;-82
2022/01/26 05:57:09;;;;;;;30.77;10.93;;;;;;;;;;4994241;28;20085;-82
2022/01/26 05:59:37;;;;;;;31.88;9.63;;;;;;;;;;5008488;28;20050;-83
2022/01/26 06:02:05;;;;;;;28.67;9.35;;;;;;;;;;4995271;28;20105;-82
2022/01/26 06:04:33;;;;;;;29.50;8.48;;;;;;;;;;4993983;28;20050;-83
2022/01/26 06:07:01;;;;;;;27.85;9.18;;;;;;;;;;4991063;28;20045;-82
2022/01/26 06:09:29;;;;;;;37.60;10.27;;;;;;;;;;5004072;28;20812;-82
2022/01/26 06:11:57;;;;;;;30.55;9.15;;;;;;;;;;4994303;28;20046;-82
2022/01/26 06:14:25;;;;;;;33.47;9.32;;;;;;;;;;4988280;28;20102;-82
2022/01/26 06:16:53;;;;;;;34.90;10.15;;;;;;;;;;4991030;28;20133;-82
2022/01/26 06:19:21;;;;;;;32.63;9.68;;;;;;;;;;4986720;28;20046;-82
2022/01/26 06:21:49;;;;;;;27.10;8.90;;;;;;;;;;4991783;28;20048;-82
2022/01/26 06:24:17;;;;;;;28.70;9.05;;;;;;;;;;5024189;28;20049;-82
2022/01/26 06:26:45;;;;;;;33.55;11.05;;;;;;;;;;4993849;28;20038;-82
2022/01/26 06:29:13;;;;;;;34.22;9.48;;;;;;;;;;5012830;28;20044;-82
2022/01/26 06:31:43;;;;;;;30.88;9.68;;;;;;;;;;4992824;28;20049;-82
2022/01/26 06:34:11;;;;;;;37.88;11.02;;;;;;;;;;4992071;28;20062;-82
2022/01/26 06:36:43;;;;;;;30.00;8.40;;;;;;;;;;4992364;28;20046;-82
2022/01/26 06:39:14;;;;;;;32.47;10.93;;;;;;;;;;4990310;28;20414;-83
2022/01/26 06:41:51;;;;;;;31.48;10.90;;;;;;;;;;4988978;28;20035;-82
2022/01/26 06:44:26;;;;;;;33.67;10.30;;;;;;;;;;5027464;28;20026;-82
2022/01/26 06:47:15;;;;;;;30.80;9.38;;;;;;;;;;5002865;28;20038;-82
2022/01/26 06:49:43;;;;;;;34.15;10.32;;;;;;;;;;4989991;28;20061;-82
2022/01/26 06:52:11;;;;;;;33.33;10.27;;;;;;;;;;5006196;28;20042;-82
2022/01/26 06:54:39;;;;;;;32.17;9.90;;;;;;;;;;5003692;28;20057;-84
2022/01/26 06:57:07;;;;;;;41.65;11.20;;;;;;;;;;4982288;28;20061;-83
2022/01/26 06:59:35;;;;;;;35.72;11.00;;;;;;;;;;4987455;28;20042;-82
2022/01/26 07:02:03;;;;;;;29.08;10.05;;;;;;;;;;4991913;28;20050;-82
2022/01/26 07:04:31;;;;;;;32.60;10.15;;;;;;;;;;4982250;28;20134;-81
2022/01/26 07:06:59;;;;;;;29.42;9.15;;;;;;;;;;4983448;28;20039;-82
2022/01/26 07:09:27;;;;;;;30.77;9.93;;;;;;;;;;4987770;28;20037;-82
2022/01/26 07:11:55;;;;;;;32.80;9.52;;;;;;;;;;4986538;28;20065;-82
2022/01/26 07:19:46;;;;;;;30.17;9.38;;;;;;;;;;4988696;28;20145;-82
2022/01/26 07:22:47;;;;;;;30.40;9.95;;;;;;;;;;5020977;28;20133;-82
2022/01/26 07:25:17;;;;;;;33.67;9.38;;;;;;;;;;4989958;28;20129;-82
2022/01/26 07:27:45;;;;;;;28.88;10.50;;;;;;;;;;4989867;28;20558;-82
2022/01/26 07:30:13;;;;;;;32.03;10.30;;;;;;;;;;4980732;28;20052;-83
2022/01/26 07:32:41;;;;;;;31.67;9.45;;;;;;;;;;4995176;28;20053;-82
2022/01/26 07:35:09;;;;;;;26.60;9.77;;;;;;;;;;5002029;28;20050;-82
2022/01/26 07:37:37;;;;;;;31.50;10.45;;;;;;;;;;4988103;28;20047;-82
2022/01/26 07:40:07;;;;;;;29.98;10.65;;;;;;;;;;4983660;28;20077;-83
2022/01/26 07:42:37;;;;;;;33.58;9.45;;;;;;;;;;4986449;28;20042;-82
2022/01/26 07:45:17;;;;;;;30.58;8.88;;;;;;;;;;4984133;28;20133;-82
2022/01/26 07:47:51;;;;;;;32.75;10.27;;;;;;;;;;5000623;28;20054;-82
2022/01/26 07:50:34;;;;;;;32.20;9.68;;;;;;;;;;4973554;28;20062;-82
2022/01/26 07:53:02;;;;;;;28.85;9.57;;;;;;;;;;4984167;28;21040;-82
2022/01/26 07:55:30;;;;;;;28.65;9.15;;;;;;;;;;5003166;28;20054;-82
2022/01/26 07:58:01;;;;;;;29.10;9.35;;;;;;;;;;4989238;28;20118;-82
2022/01/26 08:00:29;;;;;;;32.63;10.00;;;;;;;;;;4998582;28;20586;-82
2022/01/26 08:02:57;;;;;;;29.25;10.80;;;;;;;;;;4989459;28;20445;-81
2022/01/26 08:05:25;;;;;;;29.55;9.60;;;;;;;;;;4990057;28;20054;-82
2022/01/26 08:07:53;;;;;;;31.73;11.18;;;;;;;;;;4989026;28;20088;-81
2022/01/26 08:10:21;;;;;;;33.90;10.85;;;;;;;;;;4991818;28;20072;-81
2022/01/26 08:12:51;;;;;;;32.78;11.00;;;;;;;;;;4989392;28;20081;-81
2022/01/26 08:15:26;;;;;;;35.53;11.07;;;;;;;;;;4984341;28;20591;-82
2022/01/26 08:17:54;;;;;;;35.00;10.05;;;;;;;;;;4979362;28;20051;-81
2022/01/26 08:20:24;;;;;;;36.15;9.90;;;;;;;;;;4969752;28;20042;-82
2022/01/26 08:22:55;;;;;;;36.30;11.68;;;;;;;;;;4985215;28;20138;-81
2022/01/26 08:25:31;;;;;;;32.20;10.27;;;;;;;;;;4992764;28;20038;-82
2022/01/26 08:28:07;;;;;;;33.67;10.90;;;;;;;;;;4990110;28;20154;-82
2022/01/26 08:30:38;;;;;;;28.70;10.73;;;;;;;;;;4980640;28;21118;-82
2022/01/26 08:33:09;;;;;;;34.20;10.23;;;;;;;;;;4983080;28;20066;-82
2022/01/26 08:35:39;;;;;;;32.88;11.82;;;;;;;;;;4994638;28;20038;-82
2022/01/26 08:38:08;;;;;;;34.95;11.35;;;;;;;;;;4994175;28;20548;-81
2022/01/26 08:40:39;;;;;;;36.15;10.23;;;;;;;;;;4980553;28;20543;-81
2022/01/26 08:43:07;;;;;;;34.45;12.27;;;;;;;;;;4991356;28;21223;-82
2022/01/26 08:45:37;;;;;;;34.45;11.35;;;;;;;;;;4990341;28;20066;-82
2022/01/26 08:48:05;;;;;;;34.92;11.85;;;;;;;;;;4998044;28;20045;-81
2022/01/26 08:50:33;;;;;;;34.15;10.88;;;;;;;;;;4984709;28;20046;-82
2022/01/26 08:53:01;;;;;;;34.33;11.30;;;;;;;;;;4984009;28;20050;-81
2022/01/26 08:55:43;;;;;;;38.88;11.73;;;;;;;;;;5000857;28;20034;-81
2022/01/26 08:58:13;;;;;;;38.70;11.88;;;;;;;;;;4996700;28;20097;-81
2022/01/26 09:00:42;;;;;;;36.90;11.82;;;;;;;;;;4987790;28;20054;-81
2022/01/26 09:03:18;;;;;;;38.35;11.70;;;;;;;;;;5001798;28;20109;-82
2022/01/26 09:06:02;;;;;;;34.33;11.82;;;;;;;;;;4967311;28;20046;-82
2022/01/26 09:08:31;;;;;;;37.83;11.20;;;;;;;;;;5001223;28;20058;-82
2022/01/26 09:11:01;;;;;;;40.35;11.50;;;;;;;;;;5000519;28;20050;-82
2022/01/26 09:13:56;;;;;;;34.55;11.55;;;;;;;;;;5003042;28;20042;-82
2022/01/26 09:16:26;;;;;;;37.55;11.80;;;;;;;;;;4997043;28;20212;-81
2022/01/26 09:18:57;;;;;;;36.53;10.88;;;;;;;;;;4997332;28;20077;-81
2022/01/26 09:21:25;;;;;;;39.05;12.40;;;;;;;;;;4981721;28;20510;-82
2022/01/26 09:24:08;;;;;;;34.53;10.77;;;;;;;;;;4987267;28;20056;-81
2022/01/26 09:26:37;;;;;;;34.58;12.68;;;;;;;;;;4985168;28;20136;-82
2022/01/26 09:29:05;;;;;;;40.45;12.55;;;;;;;;;;5005831;28;20121;-82
2022/01/26 09:31:33;;;;;;;40.35;13.73;;;;;;;;;;5009536;28;20088;-82
2022/01/26 09:34:02;;;;;;;38.78;11.88;;;;;;;;;;5004491;28;20045;-82
2022/01/26 09:36:51;;;;;;;44.83;11.85;;;;;;;;;;4989639;28;20038;-82
2022/01/26 09:39:40;;;;;;;42.53;12.65;;;;;;;;;;4982267;28;20672;-82
2022/01/26 09:42:12;;;;;;;41.45;11.70;;;;;;;;;;4987073;28;20042;-82
2022/01/26 09:49:37;;;;;;;39.58;13.25;;;;;;;;;;1495041;26;20045;-81
2022/01/26 09:52:48;;;;;;;39.42;11.45;;;;;;;;;;3305270;26;20048;-81
2022/01/26 09:59:31;;;;;;;43.95;13.52;;;;;;;;;;1487838;26;20049;-82
2022/01/26 10:01:59;;;;;;;44.03;13.85;;;;;;;;;;5018284;28;20073;-82
2022/01/26 10:04:37;;;;;;;45.13;14.13;;;;;;;;;;5026123;28;20077;-82
2022/01/26 10:07:27;;;;;;;43.22;13.23;;;;;;;;;;5036895;28;20038;-82
2022/01/26 10:15:54;;;;;;;47.35;13.80;;;;;;;;;;5025011;28;20045;-82
2022/01/26 10:18:23;;;;;;;46.78;14.57;;;;;;;;;;5020202;28;20056;-83
2022/01/26 10:20:57;;;;;;;40.25;12.48;;;;;;;;;;5026665;28;20580;-82
2022/01/26 10:23:35;;;;;;;48.53;14.15;;;;;;;;;;5023362;28;20080;-83
2022/01/26 10:26:13;;;;;;;43.80;15.07;;;;;;;;;;5040792;28;20053;-83
2022/01/26 10:28:50;;;;;;;42.35;12.65;;;;;;;;;;5026001;28;20070;-82
2022/01/26 10:31:24;;;;;;;55.50;13.57;;;;;;;;;;5026590;28;20081;-82
2022/01/26 10:34:11;;;;;;;45.15;12.95;;;;;;;;;;5023262;28;20053;-81
2022/01/26 10:36:47;;;;;;;45.30;14.68;;;;;;;;;;5021993;28;20584;-80
2022/01/26 10:39:32;;;;;;;43.53;12.77;;;;;;;;;;5017275;28;20079;-81
2022/01/26 10:42:06;;;;;;;47.72;14.40;;;;;;;;;;5022107;28;20560;-82
2022/01/26 10:44:44;;;;;;;44.58;11.40;;;;;;;;;;5023171;28;20045;-82
2022/01/26 10:47:11;;;;;;;48.90;16.73;;;;;;;;;;5018073;28;20087;-82
2022/01/26 10:49:55;;;;;;;44.05;13.13;;;;;;;;;;5019197;28;20044;-82
2022/01/26 10:54:53;;;;;;;42.40;13.50;;;;;;;;;;5025979;28;20056;-80
2022/01/26 10:57:21;;;;;;;47.92;13.93;;;;;;;;;;5025880;28;20052;-82
2022/01/26 10:59:50;;;;;;;44.30;12.75;;;;;;;;;;5026557;28;20188;-80
2022/01/26 11:02:27;;;;;;;44.72;13.35;;;;;;;;;;5001220;28;20033;-79
2022/01/26 11:04:55;;;;;;;42.45;12.32;;;;;;;;;;5035394;28;20087;-80
2022/01/26 11:07:32;;;;;;;44.90;12.70;;;;;;;;;;5039021;28;20046;-80
2022/01/26 11:10:40;;;;;;;43.60;12.73;;;;;;;;;;5025218;28;20053;-83
2022/01/26 11:13:10;;;;;;;43.65;12.95;;;;;;;;;;5015010;28;20049;-81
2022/01/26 11:15:54;;;;;;;43.38;11.85;;;;;;;;;;5011698;28;20050;-81
2022/01/26 11:18:29;;;;;;;38.97;10.80;;;;;;;;;;5008660;28;20045;-81
2022/01/26 11:21:11;;;;;;;42.53;12.23;;;;;;;;;;5023991;28;20104;-81
2022/01/26 11:23:40;;;;;;;41.28;11.68;;;;;;;;;;5024564;28;20488;-81
2022/01/26 11:26:31;;;;;;;38.53;11.65;;;;;;;;;;5019990;28;20574;-80
2022/01/26 11:29:53;;;;;;;42.67;12.80;;;;;;;;;;4997789;28;20049;-81
2022/01/26 11:32:31;;;;;;;40.90;11.57;;;;;;;;;;4984872;28;20125;-81
2022/01/26 11:35:05;;;;;;;47.67;12.77;;;;;;;;;;5000949;28;20065;-81
2022/01/26 11:45:34;;;;;;;42.30;13.18;;;;;;;;;;4995211;28;20049;-80
2022/01/26 11:48:24;;;;;;;43.42;12.65;;;;;;;;;;4995745;28;20511;-81
2022/01/26 11:51:01;;;;;;;46.53;13.05;;;;;;;;;;4986462;28;20054;-81
2022/01/26 11:53:30;;;;;;;48.70;10.95;;;;;;;;;;4988848;28;20061;-82
2022/01/26 11:56:08;;;;;;;45.05;12.27;;;;;;;;;;4998084;28;20115;-81
2022/01/26 11:58:45;;;;;;;49.03;12.73;;;;;;;;;;4994526;28;20046;-82
2022/01/26 12:04:09;;;;;;;45.28;13.07;;;;;;;;;;5018805;28;20057;-81
2022/01/26 12:06:47;;;;;;;47.65;13.02;;;;;;;;;;4998567;28;20050;-81
2022/01/26 12:09:17;;;;;;;52.55;13.77;;;;;;;;;;4998903;28;20046;-82
2022/01/26 12:11:52;;;;;;;42.38;13.05;;;;;;;;;;5002398;28;20607;-82
2022/01/26 12:14:23;;;;;;;45.95;13.10;;;;;;;;;;4999874;28;20049;-82
2022/01/26 12:16:54;;;;;;;48.90;13.90;;;;;;;;;;5001466;28;20042;-82
2022/01/26 12:19:33;;;;;;;48.33;13.82;;;;;;;;;;4984653;28;20042;-82
2022/01/26 12:36:29;;;;;;;41.72;13.68;;;;;;;;;;4999096;28;20062;-82
2022/01/26 12:39:13;;;;;;;53.35;14.15;;;;;;;;;;4993218;28;20089;-83
2022/01/26 12:41:53;;;;;;;56.05;13.85;;;;;;;;;;4974354;28;20047;-83
2022/01/26 12:44:48;;;;;;;48.25;12.93;;;;;;;;;;5001494;28;20498;-86
2022/01/26 12:47:51;;;;;;;45.03;14.30;;;;;;;;;;4976301;28;20057;-86
2022/01/26 12:50:23;;;;;;;44.10;13.93;;;;;;;;;;4981179;28;21590;-85
2022/01/26 12:52:53;;;;;;;51.75;12.32;;;;;;;;;;4966291;28;20054;-83
2022/01/26 12:55:39;;;;;;;48.25;13.00;;;;;;;;;;4980153;28;20048;-82
2022/01/26 12:58:09;;;;;;;46.63;12.70;;;;;;;;;;4997309;28;20053;-82
2022/01/26 13:01:09;;;;;;;42.88;12.88;;;;;;;;;;5000884;28;20049;-81
2022/01/26 13:03:49;;;;;;;48.95;12.93;;;;;;;;;;5009391;28;20089;-81
2022/01/26 13:06:22;;;;;;;45.42;12.43;;;;;;;;;;5007117;28;20042;-81
2022/01/26 13:09:17;;;;;;;49.15;12.90;;;;;;;;;;5024813;28;20073;-81
2022/01/26 13:11:53;;;;;;;51.95;13.00;;;;;;;;;;5009393;28;20057;-81
2022/01/26 13:14:59;;;;;;;46.65;12.60;;;;;;;;;;4990210;28;20054;-83
2022/01/26 13:17:53;;;;;;;43.58;11.80;;;;;;;;;;4979833;28;20444;-81
2022/01/26 13:24:05;;;;;;;44.65;12.35;;;;;;;;;;4948613;28;20050;-80
2022/01/26 13:26:52;;;;;;;46.35;11.80;;;;;;;;;;4963814;28;20043;-80
2022/01/26 13:29:51;;;;;;;49.88;12.90;;;;;;;;;;4961221;28;20134;-80
2022/01/26 13:32:35;;;;;;;49.70;11.80;;;;;;;;;;4943024;28;20054;-80
2022/01/26 13:35:43;;;;;;;50.17;13.23;;;;;;;;;;4946737;28;20543;-80
2022/01/26 13:53:52;;;;;;;57.92;14.13;;;;;;;;;;4950072;28;20057;-80
2022/01/26 13:56:38;;;;;;;52.15;13.20;;;;;;;;;;4941909;28;20039;-80
2022/01/26 13:59:38;;;;;;;45.80;13.77;;;;;;;;;;4924931;28;20369;-80
2022/01/26 14:03:03;;;;;;;56.75;14.57;;;;;;;;;;4952493;28;20053;-80
2022/01/26 14:05:31;;;;;;;55.95;14.68;;;;;;;;;;4964124;28;20047;-81
2022/01/26 14:07:59;;;;;;;56.17;14.98;;;;;;;;;;4953716;28;20062;-80
2022/01/26 14:10:27;;;;;;;49.88;13.85;;;;;;;;;;4953591;28;20090;-80
2022/01/26 14:12:56;;;;;;;49.47;14.20;;;;;;;;;;4947255;28;20074;-80
2022/01/26 14:15:35;;;;;;;55.80;14.90;;;;;;;;;;4967665;28;20063;-80
2022/01/26 14:18:35;;;;;;;43.70;11.75;;;;;;;;;;4966908;28;20705;-80
2022/01/26 14:21:22;;;;;;;52.53;14.65;;;;;;;;;;4963468;28;20117;-81
2022/01/26 14:26:23;;;;;;;44.03;14.73;;;;;;;;;;4959952;28;20066;-81
2022/01/26 14:28:51;;;;;;;55.67;15.05;;;;;;;;;;4960146;28;20086;-81
2022/01/26 14:55:29;;;;;;;51.45;15.25;;;;;;;;;;4963813;28;20053;-81
2022/01/26 15:00:54;;;;;;;55.97;15.90;;;;;;;;;;4960513;28;20050;-81
2022/01/26 15:12:14;;;;;;;50.80;13.98;;;;;;;;;;4958931;28;20130;-81
2022/01/26 15:52:10;;;;;;;48.95;13.90;;;;;;;;;;4943842;28;20062;-82
2022/01/26 16:05:56;;;;;;;49.92;15.02;;;;;;;;;;4962749;28;20058;-81
2022/01/26 17:24:26;;;;;;;62.20;15.73;;;;;;;;;;4929439;29;20131;-82
2022/01/26 18:16:57;;;;;;;92.72;24.65;;;;;;;;;;4966852;28;20039;-81
2022/01/26 18:39:06;;;;;;;73.95;19.10;;;;;;;;;;4966032;28;20058;-82
2022/01/26 18:50:13;;;;;;;64.55;19.20;;;;;;;;;;4985189;28;20042;-82
2022/01/26 18:52:41;;;;;;;70.00;17.55;;;;;;;;;;4969756;28;20475;-82
2022/01/26 18:55:12;;;;;;;80.78;19.92;;;;;;;;;;4966238;28;20039;-81
2022/01/26 18:57:39;;;;;;;68.93;16.88;;;;;;;;;;4964112;28;20511;-81
2022/01/26 19:00:08;;;;;;;78.85;19.83;;;;;;;;;;4965114;28;20075;-81
2022/01/26 19:02:35;;;;;;;84.68;19.58;;;;;;;;;;4979301;28;20093;-82
2022/01/26 19:05:11;;;;;;;77.65;19.27;;;;;;;;;;4965117;28;20046;-82
2022/01/26 19:07:39;;;;;;;84.43;20.48;;;;;;;;;;4987914;28;20034;-82
2022/01/26 19:10:08;;;;;;;80.80;20.48;;;;;;;;;;4971104;28;20027;-81
2022/01/26 19:12:38;;;;;;;80.93;18.98;;;;;;;;;;4976583;28;20039;-82
2022/01/26 19:15:11;;;;;;;72.68;18.50;;;;;;;;;;4967157;28;20066;-81
2022/01/26 19:17:57;;;;;;;71.72;19.05;;;;;;;;;;4964273;28;20489;-82
2022/01/26 19:28:10;;;;;;;73.35;18.73;;;;;;;;;;4962411;28;20556;-81
2022/01/26 19:33:25;;;;;;;67.00;17.75;;;;;;;;;;4966404;28;20077;-82
2022/01/26 19:44:31;;;;;;;61.55;18.08;;;;;;;;;;4949812;28;20432;-83
2022/01/26 19:52:15;;;;;;;63.67;17.25;;;;;;;;;;4948669;28;20114;-82
2022/01/26 19:54:46;;;;;;;74.05;17.95;;;;;;;;;;4939560;28;20047;-82
2022/01/26 19:57:17;;;;;;;60.42;16.48;;;;;;;;;;4938077;28;20047;-82
2022/01/26 19:59:46;;;;;;;65.40;19.17;;;;;;;;;;4937231;28;20090;-82
2022/01/26 20:02:13;;;;;;;63.60;16.60;;;;;;;;;;4953124;28;20066;-82
2022/01/26 20:04:41;;;;;;;64.03;16.08;;;;;;;;;;4947727;28;20063;-82
2022/01/26 20:07:15;;;;;;;74.63;17.52;;;;;;;;;;4938637;28;20051;-82
2022/01/26 20:09:48;;;;;;;67.72;18.40;;;;;;;;;;4927252;28;20501;-82
2022/01/26 20:14:51;;;;;;;73.47;18.95;;;;;;;;;;4948439;28;20061;-82
2022/01/26 20:17:19;;;;;;;61.60;17.52;;;;;;;;;;4934364;28;20405;-82
2022/01/26 20:19:47;;;;;;;63.00;17.95;;;;;;;;;;5000613;28;20043;-82
2022/01/26 20:22:15;;;;;;;57.63;16.17;;;;;;;;;;4968954;28;20043;-82
2022/01/26 20:24:43;;;;;;;56.92;15.50;;;;;;;;;;4965190;28;20086;-82
2022/01/26 20:27:11;;;;;;;68.00;15.95;;;;;;;;;;4966264;28;20117;-82
2022/01/26 20:29:47;;;;;;;50.50;16.75;;;;;;;;;;4962656;28;20035;-82
2022/01/26 20:32:15;;;;;;;51.75;15.57;;;;;;;;;;4967760;28;20043;-81
2022/01/26 20:34:43;;;;;;;55.60;16.33;;;;;;;;;;5003360;28;20071;-82
2022/01/26 20:37:11;;;;;;;59.42;16.60;;;;;;;;;;4975104;28;20051;-82
2022/01/26 20:39:39;;;;;;;60.65;16.95;;;;;;;;;;4987032;28;20035;-82
2022/01/26 20:42:07;;;;;;;44.22;14.30;;;;;;;;;;4971587;28;20093;-81
2022/01/26 20:44:35;;;;;;;51.22;15.57;;;;;;;;;;4968295;28;20062;-82
2022/01/26 20:47:03;;;;;;;55.33;14.52;;;;;;;;;;4971614;28;20039;-82
2022/01/26 20:49:31;;;;;;;50.47;14.35;;;;;;;;;;4971669;28;20046;-82
2022/01/26 20:51:59;;;;;;;51.70;13.68;;;;;;;;;;5001400;28;21748;-81
2022/01/26 20:54:27;;;;;;;51.92;13.75;;;;;;;;;;4969572;28;20055;-82
2022/01/26 20:56:55;;;;;;;46.25;15.10;;;;;;;;;;4974551;28;20043;-82
2022/01/26 20:59:23;;;;;;;51.17;14.20;;;;;;;;;;4971633;28;20066;-82
2022/01/26 21:01:51;;;;;;;45.80;13.20;;;;;;;;;;4969512;28;20054;-82
2022/01/26 21:04:19;;;;;;;43.10;13.20;;;;;;;;;;4963521;28;20126;-82
2022/01/26 21:06:49;;;;;;;42.10;12.93;;;;;;;;;;4965471;28;20054;-81
2022/01/26 21:09:17;;;;;;;43.75;13.20;;;;;;;;;;4964175;28;20053;-82
2022/01/26 21:11:45;;;;;;;44.67;12.10;;;;;;;;;;4966200;28;20038;-82
2022/01/26 21:14:13;;;;;;;41.13;12.02;;;;;;;;;;4971238;28;20039;-83
2022/01/26 21:16:41;;;;;;;39.38;12.23;;;;;;;;;;4971108;28;20054;-82
2022/01/26 21:19:10;;;;;;;43.28;12.05;;;;;;;;;;4970902;28;20086;-82
2022/01/26 21:21:37;;;;;;;37.70;10.88;;;;;;;;;;4989534;28;20078;-82
2022/01/26 21:24:25;;;;;;;40.78;11.98;;;;;;;;;;4974484;28;20333;-82
2022/01/26 21:26:57;;;;;;;41.78;12.48;;;;;;;;;;4975364;28;20455;-82
2022/01/26 21:29:25;;;;;;;41.45;11.20;;;;;;;;;;4989271;28;20043;-82
2022/01/26 21:31:53;;;;;;;42.88;11.98;;;;;;;;;;4975347;28;20050;-82
2022/01/26 21:34:21;;;;;;;35.35;10.23;;;;;;;;;;4968820;28;20078;-82
2022/01/26 21:36:49;;;;;;;38.03;11.57;;;;;;;;;;4967400;28;20059;-82
2022/01/26 21:39:17;;;;;;;41.63;11.40;;;;;;;;;;4967373;28;20054;-82
2022/01/26 21:41:45;;;;;;;43.42;13.13;;;;;;;;;;4969445;28;20087;-82
2022/01/26 21:44:13;;;;;;;41.35;13.32;;;;;;;;;;4978223;28;20035;-82
2022/01/26 21:46:43;;;;;;;47.33;14.07;;;;;;;;;;4989283;28;20046;-82
2022/01/26 21:49:12;;;;;;;43.22;12.43;;;;;;;;;;4988699;28;20023;-82
2022/01/26 21:51:40;;;;;;;43.38;12.48;;;;;;;;;;4998361;28;20038;-82
2022/01/26 21:54:07;;;;;;;51.50;13.32;;;;;;;;;;4987260;28;20518;-82
2022/01/26 21:56:35;;;;;;;37.88;11.93;;;;;;;;;;4983997;28;20039;-82
2022/01/26 21:59:03;;;;;;;42.83;12.38;;;;;;;;;;4966717;28;20106;-82